sensor_id;sensor_type;location;lat;lon;timestamp;temperature;humidity
41557;DHT22;27720;51.992;5.890;2024-01-25T00:01:39;10.50;99.90
41557;DHT22;27720;51.992;5.890;2024-01-25T00:04:04;10.50;99.90
41557;DHT22;27720;51.992;5.890;2024-01-25T00:06:30;10.40;99.90
41557;DHT22;27720;51.992;5.890;2024-01-25T00:08:56;10.40;99.90
41557;DHT22;27720;51.992;5.890;2024-01-25T00:11:21;10.40;99.90
41557;DHT22;27720;51.992;5.890;2024-01-25T00:13:47;10.40;99.90
41557;DHT22;27720;51.992;5.890;2024-01-25T00:16:13;10.40;99.90
41557;DHT22;27720;51.992;5.890;2024-01-25T00:18:39;10.40;99.90
41557;DHT22;27720;51.992;5.890;2024-01-25T00:21:04;10.30;99.90
41557;DHT22;27720;51.992;5.890;2024-01-25T00:23:30;10.30;99.90
41557;DHT22;27720;51.992;5.890;2024-01-25T00:25:56;10.30;99.90
41557;DHT22;27720;51.992;5.890;2024-01-25T00:28:24;10.30;99.90
41557;DHT22;27720;51.992;5.890;2024-01-25T00:30:50;10.30;99.90
41557;DHT22;27720;51.992;5.890;2024-01-25T00:33:16;10.20;99.90
41557;DHT22;27720;51.992;5.890;2024-01-25T00:35:42;10.20;99.90
41557;DHT22;27720;51.992;5.890;2024-01-25T00:38:08;10.20;99.90
41557;DHT22;27720;51.992;5.890;2024-01-25T00:40:34;10.20;99.90
41557;DHT22;27720;51.992;5.890;2024-01-25T00:43:00;10.20;99.90
41557;DHT22;27720;51.992;5.890;2024-01-25T00:45:25;10.20;99.90
41557;DHT22;27720;51.992;5.890;2024-01-25T00:47:52;10.20;99.90
41557;DHT22;27720;51.992;5.890;2024-01-25T00:50:18;10.10;99.90
41557;DHT22;27720;51.992;5.890;2024-01-25T00:52:47;10.10;99.90
41557;DHT22;27720;51.992;5.890;2024-01-25T00:55:13;10.10;99.90
41557;DHT22;27720;51.992;5.890;2024-01-25T00:57:39;10.10;99.90
41557;DHT22;27720;51.992;5.890;2024-01-25T01:00:05;10.00;99.90
41557;DHT22;27720;51.992;5.890;2024-01-25T01:02:36;10.00;99.90
41557;DHT22;27720;51.992;5.890;2024-01-25T01:05:03;10.00;99.90
41557;DHT22;27720;51.992;5.890;2024-01-25T01:07:29;10.00;99.90
41557;DHT22;27720;51.992;5.890;2024-01-25T01:09:55;9.90;99.90
41557;DHT22;27720;51.992;5.890;2024-01-25T01:12:20;10.00;99.90
41557;DHT22;27720;51.992;5.890;2024-01-25T01:14:46;9.90;99.90
41557;DHT22;27720;51.992;5.890;2024-01-25T01:17:11;9.90;99.90
41557;DHT22;27720;51.992;5.890;2024-01-25T01:19:37;9.90;99.90
41557;DHT22;27720;51.992;5.890;2024-01-25T01:22:03;9.90;99.90
41557;DHT22;27720;51.992;5.890;2024-01-25T01:24:28;9.90;99.90
41557;DHT22;27720;51.992;5.890;2024-01-25T01:26:54;9.90;99.90
41557;DHT22;27720;51.992;5.890;2024-01-25T01:29:20;9.90;99.90
41557;DHT22;27720;51.992;5.890;2024-01-25T01:31:46;9.90;99.90
41557;DHT22;27720;51.992;5.890;2024-01-25T01:34:12;9.90;99.90
41557;DHT22;27720;51.992;5.890;2024-01-25T01:36:39;9.90;99.90
41557;DHT22;27720;51.992;5.890;2024-01-25T01:39:04;9.90;99.90
41557;DHT22;27720;51.992;5.890;2024-01-25T01:41:31;9.90;99.90
41557;DHT22;27720;51.992;5.890;2024-01-25T01:43:57;9.90;99.90
41557;DHT22;27720;51.992;5.890;2024-01-25T01:46:38;9.80;99.90
41557;DHT22;27720;51.992;5.890;2024-01-25T01:49:07;9.80;99.90
41557;DHT22;27720;51.992;5.890;2024-01-25T01:51:33;9.70;99.90
41557;DHT22;27720;51.992;5.890;2024-01-25T01:54:01;9.70;99.90
41557;DHT22;27720;51.992;5.890;2024-01-25T01:56:28;9.70;99.90
41557;DHT22;27720;51.992;5.890;2024-01-25T01:58:56;9.70;99.90
41557;DHT22;27720;51.992;5.890;2024-01-25T02:01:24;9.60;99.90
41557;DHT22;27720;51.992;5.890;2024-01-25T02:03:50;9.60;99.90
41557;DHT22;27720;51.992;5.890;2024-01-25T02:06:15;9.60;99.90
41557;DHT22;27720;51.992;5.890;2024-01-25T02:08:41;9.60;99.90
41557;DHT22;27720;51.992;5.890;2024-01-25T02:11:07;9.50;99.90
41557;DHT22;27720;51.992;5.890;2024-01-25T02:13:34;9.40;99.90
41557;DHT22;27720;51.992;5.890;2024-01-25T02:16:00;9.40;99.90
41557;DHT22;27720;51.992;5.890;2024-01-25T02:18:26;9.40;99.90
41557;DHT22;27720;51.992;5.890;2024-01-25T02:20:52;9.40;99.90
41557;DHT22;27720;51.992;5.890;2024-01-25T02:23:17;9.30;99.90
41557;DHT22;27720;51.992;5.890;2024-01-25T02:25:43;9.30;99.90
41557;DHT22;27720;51.992;5.890;2024-01-25T02:28:09;9.30;99.90
41557;DHT22;27720;51.992;5.890;2024-01-25T02:30:34;9.30;99.90
41557;DHT22;27720;51.992;5.890;2024-01-25T02:33:00;9.30;99.90
41557;DHT22;27720;51.992;5.890;2024-01-25T02:35:26;9.30;99.90
41557;DHT22;27720;51.992;5.890;2024-01-25T02:37:51;9.30;99.90
41557;DHT22;27720;51.992;5.890;2024-01-25T02:40:17;9.20;99.90
41557;DHT22;27720;51.992;5.890;2024-01-25T02:42:43;9.20;99.90
41557;DHT22;27720;51.992;5.890;2024-01-25T02:45:09;9.20;99.90
41557;DHT22;27720;51.992;5.890;2024-01-25T02:47:34;9.20;99.90
41557;DHT22;27720;51.992;5.890;2024-01-25T02:50:00;9.20;99.90
41557;DHT22;27720;51.992;5.890;2024-01-25T02:52:26;9.10;99.90
41557;DHT22;27720;51.992;5.890;2024-01-25T02:54:51;9.10;99.90
41557;DHT22;27720;51.992;5.890;2024-01-25T02:57:17;9.10;99.90
41557;DHT22;27720;51.992;5.890;2024-01-25T02:59:43;9.00;99.90
41557;DHT22;27720;51.992;5.890;2024-01-25T03:02:09;9.10;99.90
41557;DHT22;27720;51.992;5.890;2024-01-25T03:04:34;9.00;99.90
41557;DHT22;27720;51.992;5.890;2024-01-25T03:07:00;9.00;99.90
41557;DHT22;27720;51.992;5.890;2024-01-25T03:09:26;9.00;99.90
41557;DHT22;27720;51.992;5.890;2024-01-25T03:11:51;9.00;99.90
41557;DHT22;27720;51.992;5.890;2024-01-25T03:14:17;9.00;99.90
41557;DHT22;27720;51.992;5.890;2024-01-25T03:16:43;8.90;99.90
41557;DHT22;27720;51.992;5.890;2024-01-25T03:19:12;8.90;99.90
41557;DHT22;27720;51.992;5.890;2024-01-25T03:21:38;8.90;99.90
41557;DHT22;27720;51.992;5.890;2024-01-25T03:24:04;8.90;99.90
41557;DHT22;27720;51.992;5.890;2024-01-25T03:26:30;8.90;99.90
41557;DHT22;27720;51.992;5.890;2024-01-25T03:28:55;8.80;99.90
41557;DHT22;27720;51.992;5.890;2024-01-25T03:31:21;8.80;99.90
41557;DHT22;27720;51.992;5.890;2024-01-25T03:33:47;8.80;99.90
41557;DHT22;27720;51.992;5.890;2024-01-25T03:36:15;8.80;99.90
41557;DHT22;27720;51.992;5.890;2024-01-25T03:38:41;8.80;99.90
41557;DHT22;27720;51.992;5.890;2024-01-25T03:41:07;8.80;99.90
41557;DHT22;27720;51.992;5.890;2024-01-25T03:43:33;8.70;99.90
41557;DHT22;27720;51.992;5.890;2024-01-25T03:45:59;8.70;99.90
41557;DHT22;27720;51.992;5.890;2024-01-25T03:48:24;8.60;99.90
41557;DHT22;27720;51.992;5.890;2024-01-25T03:50:50;8.60;99.90
41557;DHT22;27720;51.992;5.890;2024-01-25T03:53:16;8.60;99.90
41557;DHT22;27720;51.992;5.890;2024-01-25T03:55:41;8.60;99.90
41557;DHT22;27720;51.992;5.890;2024-01-25T03:58:07;8.60;99.90
41557;DHT22;27720;51.992;5.890;2024-01-25T04:00:33;8.60;99.90
41557;DHT22;27720;51.992;5.890;2024-01-25T10:17:05;4.60;99.90
41557;DHT22;27720;51.992;5.890;2024-01-25T10:19:31;4.80;99.90
41557;DHT22;27720;51.992;5.890;2024-01-25T10:21:58;5.40;99.90
41557;DHT22;27720;51.992;5.890;2024-01-25T10:24:24;6.00;99.90
41557;DHT22;27720;51.992;5.890;2024-01-25T10:26:49;6.50;99.90
41557;DHT22;27720;51.992;5.890;2024-01-25T10:29:15;6.80;99.90
41557;DHT22;27720;51.992;5.890;2024-01-25T10:32:07;7.20;99.90
41557;DHT22;27720;51.992;5.890;2024-01-25T10:34:36;7.50;99.90
41557;DHT22;27720;51.992;5.890;2024-01-25T10:37:05;7.80;99.90
41557;DHT22;27720;51.992;5.890;2024-01-25T10:39:32;8.00;99.90
41557;DHT22;27720;51.992;5.890;2024-01-25T10:41:59;8.10;99.90
41557;DHT22;27720;51.992;5.890;2024-01-25T10:44:25;8.30;99.90
41557;DHT22;27720;51.992;5.890;2024-01-25T10:46:51;8.40;99.90
41557;DHT22;27720;51.992;5.890;2024-01-25T10:49:18;8.40;99.90
41557;DHT22;27720;51.992;5.890;2024-01-25T10:51:44;8.50;99.90
41557;DHT22;27720;51.992;5.890;2024-01-25T10:54:12;8.60;99.90
41557;DHT22;27720;51.992;5.890;2024-01-25T10:56:41;8.60;99.90
41557;DHT22;27720;51.992;5.890;2024-01-25T10:59:10;8.70;99.90
41557;DHT22;27720;51.992;5.890;2024-01-25T11:01:36;8.80;99.90
41557;DHT22;27720;51.992;5.890;2024-01-25T11:04:02;8.80;99.90
41557;DHT22;27720;51.992;5.890;2024-01-25T11:06:28;8.90;99.90
41557;DHT22;27720;51.992;5.890;2024-01-25T11:09:04;8.90;99.90
41557;DHT22;27720;51.992;5.890;2024-01-25T11:11:31;9.00;99.90
41557;DHT22;27720;51.992;5.890;2024-01-25T11:13:59;9.00;99.90
41557;DHT22;27720;51.992;5.890;2024-01-25T11:16:32;9.10;99.90
41557;DHT22;27720;51.992;5.890;2024-01-25T11:19:01;9.20;99.90
41557;DHT22;27720;51.992;5.890;2024-01-25T11:21:43;9.20;99.90
41557;DHT22;27720;51.992;5.890;2024-01-25T11:26:44;9.30;99.90
41557;DHT22;27720;51.992;5.890;2024-01-25T11:29:16;9.40;99.90
41557;DHT22;27720;51.992;5.890;2024-01-25T11:31:46;9.40;99.90
41557;DHT22;27720;51.992;5.890;2024-01-25T11:34:13;9.40;99.90
41557;DHT22;27720;51.992;5.890;2024-01-25T11:36:39;9.40;99.90
41557;DHT22;27720;51.992;5.890;2024-01-25T11:39:06;9.50;99.90
41557;DHT22;27720;51.992;5.890;2024-01-25T11:41:32;9.50;99.90
41557;DHT22;27720;51.992;5.890;2024-01-25T11:43:58;9.60;99.90
41557;DHT22;27720;51.992;5.890;2024-01-25T11:46:25;9.70;99.90
41557;DHT22;27720;51.992;5.890;2024-01-25T11:48:51;9.80;99.90
41557;DHT22;27720;51.992;5.890;2024-01-25T11:51:17;9.80;99.90
41557;DHT22;27720;51.992;5.890;2024-01-25T11:53:42;9.80;99.90
41557;DHT22;27720;51.992;5.890;2024-01-25T11:56:19;9.80;99.90
41557;DHT22;27720;51.992;5.890;2024-01-25T11:58:46;9.80;99.90
41557;DHT22;27720;51.992;5.890;2024-01-25T12:01:12;9.90;99.90
41557;DHT22;27720;51.992;5.890;2024-01-25T12:03:40;9.90;99.90
41557;DHT22;27720;51.992;5.890;2024-01-25T12:06:06;9.90;99.90
41557;DHT22;27720;51.992;5.890;2024-01-25T12:08:35;9.90;99.90
41557;DHT22;27720;51.992;5.890;2024-01-25T12:11:08;10.00;99.90
41557;DHT22;27720;51.992;5.890;2024-01-25T12:13:41;10.00;99.90
41557;DHT22;27720;51.992;5.890;2024-01-25T12:16:09;10.00;99.90
41557;DHT22;27720;51.992;5.890;2024-01-25T12:18:35;10.10;99.90
41557;DHT22;27720;51.992;5.890;2024-01-25T12:21:02;10.10;99.90
41557;DHT22;27720;51.992;5.890;2024-01-25T12:23:36;10.10;99.90
41557;DHT22;27720;51.992;5.890;2024-01-25T12:26:11;10.20;99.90
41557;DHT22;27720;51.992;5.890;2024-01-25T12:28:37;10.20;99.90
41557;DHT22;27720;51.992;5.890;2024-01-25T12:31:04;10.20;99.90
41557;DHT22;27720;51.992;5.890;2024-01-25T12:33:31;10.20;99.90
41557;DHT22;27720;51.992;5.890;2024-01-25T12:35:57;10.20;99.90
41557;DHT22;27720;51.992;5.890;2024-01-25T12:38:24;10.30;99.90
41557;DHT22;27720;51.992;5.890;2024-01-25T12:40:50;10.30;99.90
41557;DHT22;27720;51.992;5.890;2024-01-25T12:43:19;10.30;99.90
41557;DHT22;27720;51.992;5.890;2024-01-25T12:45:48;10.30;99.90
41557;DHT22;27720;51.992;5.890;2024-01-25T12:48:14;10.30;99.90
41557;DHT22;27720;51.992;5.890;2024-01-25T12:50:40;10.40;99.90
41557;DHT22;27720;51.992;5.890;2024-01-25T12:53:06;10.40;99.90
41557;DHT22;27720;51.992;5.890;2024-01-25T12:55:32;10.50;99.90
41557;DHT22;27720;51.992;5.890;2024-01-25T12:57:59;10.50;99.90
41557;DHT22;27720;51.992;5.890;2024-01-25T13:00:25;10.60;99.90
41557;DHT22;27720;51.992;5.890;2024-01-25T13:02:51;10.60;99.90
41557;DHT22;27720;51.992;5.890;2024-01-25T13:05:16;10.60;99.90
41557;DHT22;27720;51.992;5.890;2024-01-25T13:07:42;10.70;99.90
41557;DHT22;27720;51.992;5.890;2024-01-25T13:10:11;10.80;99.90
41557;DHT22;27720;51.992;5.890;2024-01-25T13:12:38;10.80;99.90
41557;DHT22;27720;51.992;5.890;2024-01-25T13:15:07;10.80;99.90
41557;DHT22;27720;51.992;5.890;2024-01-25T13:17:36;10.90;99.90
41557;DHT22;27720;51.992;5.890;2024-01-25T13:20:03;10.90;99.90
41557;DHT22;27720;51.992;5.890;2024-01-25T13:22:32;10.90;99.90
41557;DHT22;27720;51.992;5.890;2024-01-25T13:24:59;11.00;99.90
41557;DHT22;27720;51.992;5.890;2024-01-25T13:27:25;11.00;99.90
41557;DHT22;27720;51.992;5.890;2024-01-25T13:29:52;11.00;99.90
41557;DHT22;27720;51.992;5.890;2024-01-25T13:32:17;11.00;99.90
41557;DHT22;27720;51.992;5.890;2024-01-25T13:34:43;11.00;99.90
41557;DHT22;27720;51.992;5.890;2024-01-25T13:37:09;11.00;99.90
41557;DHT22;27720;51.992;5.890;2024-01-25T13:39:34;11.00;99.90
41557;DHT22;27720;51.992;5.890;2024-01-25T13:42:00;11.00;99.90
41557;DHT22;27720;51.992;5.890;2024-01-25T13:44:25;10.90;99.90
41557;DHT22;27720;51.992;5.890;2024-01-25T13:46:51;10.90;99.90
41557;DHT22;27720;51.992;5.890;2024-01-25T13:49:18;10.80;99.90
41557;DHT22;27720;51.992;5.890;2024-01-25T13:51:44;10.80;99.90
41557;DHT22;27720;51.992;5.890;2024-01-25T13:54:12;10.90;99.90
41557;DHT22;27720;51.992;5.890;2024-01-25T13:56:38;10.90;99.90
41557;DHT22;27720;51.992;5.890;2024-01-25T13:59:05;10.90;99.90
41557;DHT22;27720;51.992;5.890;2024-01-25T14:01:31;11.00;99.90
41557;DHT22;27720;51.992;5.890;2024-01-25T14:03:57;11.00;99.90
41557;DHT22;27720;51.992;5.890;2024-01-25T14:06:23;11.00;99.90
41557;DHT22;27720;51.992;5.890;2024-01-25T14:08:49;11.00;99.90
41557;DHT22;27720;51.992;5.890;2024-01-25T14:11:15;11.00;99.90
41557;DHT22;27720;51.992;5.890;2024-01-25T14:13:42;10.90;99.90
41557;DHT22;27720;51.992;5.890;2024-01-25T14:16:08;10.90;99.90
41557;DHT22;27720;51.992;5.890;2024-01-25T14:18:39;10.90;99.90
41557;DHT22;27720;51.992;5.890;2024-01-25T14:21:05;10.90;99.90
41557;DHT22;27720;51.992;5.890;2024-01-25T14:23:34;10.90;99.90
41557;DHT22;27720;51.992;5.890;2024-01-25T14:26:00;10.90;99.90
41557;DHT22;27720;51.992;5.890;2024-01-25T14:28:25;10.80;99.90
41557;DHT22;27720;51.992;5.890;2024-01-25T14:30:51;10.80;99.90
41557;DHT22;27720;51.992;5.890;2024-01-25T14:33:23;10.80;99.90
41557;DHT22;27720;51.992;5.890;2024-01-25T14:36:00;10.90;99.90
41557;DHT22;27720;51.992;5.890;2024-01-25T14:38:28;10.80;99.90
41557;DHT22;27720;51.992;5.890;2024-01-25T14:40:53;10.70;99.90
41557;DHT22;27720;51.992;5.890;2024-01-25T14:43:19;10.80;99.90
41557;DHT22;27720;51.992;5.890;2024-01-25T14:45:45;10.70;99.90
41557;DHT22;27720;51.992;5.890;2024-01-25T14:48:10;10.70;99.90
41557;DHT22;27720;51.992;5.890;2024-01-25T14:50:37;10.70;99.90
41557;DHT22;27720;51.992;5.890;2024-01-25T14:53:02;10.70;99.90
41557;DHT22;27720;51.992;5.890;2024-01-25T14:55:28;10.70;99.90
41557;DHT22;27720;51.992;5.890;2024-01-25T14:57:54;10.60;99.90
41557;DHT22;27720;51.992;5.890;2024-01-25T15:00:20;10.70;99.90
41557;DHT22;27720;51.992;5.890;2024-01-25T15:02:46;10.70;99.90
41557;DHT22;27720;51.992;5.890;2024-01-25T15:05:12;10.70;99.90
41557;DHT22;27720;51.992;5.890;2024-01-25T15:07:39;10.70;99.90
41557;DHT22;27720;51.992;5.890;2024-01-25T15:10:06;10.70;99.90
41557;DHT22;27720;51.992;5.890;2024-01-25T15:12:31;10.70;99.90
41557;DHT22;27720;51.992;5.890;2024-01-25T15:14:57;10.70;99.90
41557;DHT22;27720;51.992;5.890;2024-01-25T15:17:24;10.70;99.90
41557;DHT22;27720;51.992;5.890;2024-01-25T15:19:49;10.70;99.90
41557;DHT22;27720;51.992;5.890;2024-01-25T15:22:15;10.70;99.90
41557;DHT22;27720;51.992;5.890;2024-01-25T15:24:41;10.60;99.90
41557;DHT22;27720;51.992;5.890;2024-01-25T15:27:06;10.60;99.90
41557;DHT22;27720;51.992;5.890;2024-01-25T15:29:32;10.60;99.90
41557;DHT22;27720;51.992;5.890;2024-01-25T15:31:58;10.60;99.90
41557;DHT22;27720;51.992;5.890;2024-01-25T15:34:23;10.60;99.90
41557;DHT22;27720;51.992;5.890;2024-01-25T15:36:49;10.60;99.90
41557;DHT22;27720;51.992;5.890;2024-01-25T15:39:15;10.60;99.90
41557;DHT22;27720;51.992;5.890;2024-01-25T15:41:43;10.60;99.90
41557;DHT22;27720;51.992;5.890;2024-01-25T15:44:09;10.60;99.90
41557;DHT22;27720;51.992;5.890;2024-01-25T15:46:34;10.60;99.90
41557;DHT22;27720;51.992;5.890;2024-01-25T15:49:00;10.60;99.90
41557;DHT22;27720;51.992;5.890;2024-01-25T15:51:26;10.60;99.90
41557;DHT22;27720;51.992;5.890;2024-01-25T15:53:52;10.60;99.90
41557;DHT22;27720;51.992;5.890;2024-01-25T15:56:18;10.50;99.90
41557;DHT22;27720;51.992;5.890;2024-01-25T15:58:43;10.60;99.90
41557;DHT22;27720;51.992;5.890;2024-01-25T16:01:09;10.50;99.90
41557;DHT22;27720;51.992;5.890;2024-01-25T16:03:35;10.50;99.90
41557;DHT22;27720;51.992;5.890;2024-01-25T16:06:01;10.50;99.90
41557;DHT22;27720;51.992;5.890;2024-01-25T16:08:29;10.40;99.90
41557;DHT22;27720;51.992;5.890;2024-01-25T16:10:54;10.50;99.90
41557;DHT22;27720;51.992;5.890;2024-01-25T16:13:20;10.50;99.90
41557;DHT22;27720;51.992;5.890;2024-01-25T16:15:46;10.50;99.90
41557;DHT22;27720;51.992;5.890;2024-01-25T16:18:12;10.50;99.90
41557;DHT22;27720;51.992;5.890;2024-01-25T16:20:38;10.50;99.90
41557;DHT22;27720;51.992;5.890;2024-01-25T16:23:03;10.60;99.90
41557;DHT22;27720;51.992;5.890;2024-01-25T16:25:29;10.60;99.90
41557;DHT22;27720;51.992;5.890;2024-01-25T16:27:56;10.60;99.90
41557;DHT22;27720;51.992;5.890;2024-01-25T16:30:22;10.50;99.90
41557;DHT22;27720;51.992;5.890;2024-01-25T16:32:47;10.50;99.90
41557;DHT22;27720;51.992;5.890;2024-01-25T16:35:13;10.50;99.90
41557;DHT22;27720;51.992;5.890;2024-01-25T16:37:39;10.50;99.90
41557;DHT22;27720;51.992;5.890;2024-01-25T16:40:05;10.50;99.90
41557;DHT22;27720;51.992;5.890;2024-01-25T16:42:31;10.50;99.90
41557;DHT22;27720;51.992;5.890;2024-01-25T16:44:57;10.50;99.90
41557;DHT22;27720;51.992;5.890;2024-01-25T16:47:23;10.40;99.90
41557;DHT22;27720;51.992;5.890;2024-01-25T16:49:48;10.40;99.90
41557;DHT22;27720;51.992;5.890;2024-01-25T16:52:14;10.40;99.90
41557;DHT22;27720;51.992;5.890;2024-01-25T16:54:40;10.40;99.90
41557;DHT22;27720;51.992;5.890;2024-01-25T16:57:05;10.40;99.90
41557;DHT22;27720;51.992;5.890;2024-01-25T16:59:31;10.40;99.90
41557;DHT22;27720;51.992;5.890;2024-01-25T17:01:57;10.40;99.90
41557;DHT22;27720;51.992;5.890;2024-01-25T17:04:22;10.40;99.90
41557;DHT22;27720;51.992;5.890;2024-01-25T17:06:48;10.40;99.90
41557;DHT22;27720;51.992;5.890;2024-01-25T17:09:14;10.40;99.90
41557;DHT22;27720;51.992;5.890;2024-01-25T17:11:39;10.40;99.90
41557;DHT22;27720;51.992;5.890;2024-01-25T17:14:05;10.40;99.90
41557;DHT22;27720;51.992;5.890;2024-01-25T17:16:31;10.50;99.90
41557;DHT22;27720;51.992;5.890;2024-01-25T17:18:57;10.50;99.90
41557;DHT22;27720;51.992;5.890;2024-01-25T17:21:25;10.50;99.90
41557;DHT22;27720;51.992;5.890;2024-01-25T17:23:51;10.50;99.90
41557;DHT22;27720;51.992;5.890;2024-01-25T17:26:18;10.50;99.90
41557;DHT22;27720;51.992;5.890;2024-01-25T17:28:43;10.40;99.90
41557;DHT22;27720;51.992;5.890;2024-01-25T17:31:09;10.40;99.90
41557;DHT22;27720;51.992;5.890;2024-01-25T17:33:35;10.40;99.90
41557;DHT22;27720;51.992;5.890;2024-01-25T17:36:03;10.50;99.90
41557;DHT22;27720;51.992;5.890;2024-01-25T17:38:29;10.50;99.90
41557;DHT22;27720;51.992;5.890;2024-01-25T17:40:55;10.50;99.90
41557;DHT22;27720;51.992;5.890;2024-01-25T17:43:21;10.50;99.90
41557;DHT22;27720;51.992;5.890;2024-01-25T17:45:48;10.50;99.90
41557;DHT22;27720;51.992;5.890;2024-01-25T17:48:14;10.60;99.90
41557;DHT22;27720;51.992;5.890;2024-01-25T17:50:39;10.60;99.90
41557;DHT22;27720;51.992;5.890;2024-01-25T17:53:05;10.60;99.90
41557;DHT22;27720;51.992;5.890;2024-01-25T17:55:31;10.60;99.90
41557;DHT22;27720;51.992;5.890;2024-01-25T17:57:57;10.60;99.90
41557;DHT22;27720;51.992;5.890;2024-01-25T18:00:23;10.60;99.90
41557;DHT22;27720;51.992;5.890;2024-01-25T18:02:48;10.60;99.90
41557;DHT22;27720;51.992;5.890;2024-01-25T18:05:16;10.70;99.90
41557;DHT22;27720;51.992;5.890;2024-01-25T18:07:42;10.70;99.90
41557;DHT22;27720;51.992;5.890;2024-01-25T18:10:08;10.70;99.90
41557;DHT22;27720;51.992;5.890;2024-01-25T18:12:37;10.60;99.90
41557;DHT22;27720;51.992;5.890;2024-01-25T18:15:04;10.70;99.90
41557;DHT22;27720;51.992;5.890;2024-01-25T18:17:30;10.70;99.90
41557;DHT22;27720;51.992;5.890;2024-01-25T18:19:56;10.70;99.90
41557;DHT22;27720;51.992;5.890;2024-01-25T18:22:21;10.70;99.90
41557;DHT22;27720;51.992;5.890;2024-01-25T18:24:47;10.70;99.90
41557;DHT22;27720;51.992;5.890;2024-01-25T18:27:13;10.70;99.90
41557;DHT22;27720;51.992;5.890;2024-01-25T18:29:38;10.70;99.90
41557;DHT22;27720;51.992;5.890;2024-01-25T18:32:08;10.80;99.90
41557;DHT22;27720;51.992;5.890;2024-01-25T18:34:35;10.80;99.90
41557;DHT22;27720;51.992;5.890;2024-01-25T18:37:00;10.70;99.90
41557;DHT22;27720;51.992;5.890;2024-01-25T18:39:26;10.70;99.90
41557;DHT22;27720;51.992;5.890;2024-01-25T18:41:53;10.70;99.90
41557;DHT22;27720;51.992;5.890;2024-01-25T18:44:20;10.70;99.90
41557;DHT22;27720;51.992;5.890;2024-01-25T18:46:48;10.80;99.90
41557;DHT22;27720;51.992;5.890;2024-01-25T18:49:14;10.80;99.90
41557;DHT22;27720;51.992;5.890;2024-01-25T18:51:40;10.90;99.90
41557;DHT22;27720;51.992;5.890;2024-01-25T18:54:06;10.90;99.90
41557;DHT22;27720;51.992;5.890;2024-01-25T18:56:34;10.90;99.90
41557;DHT22;27720;51.992;5.890;2024-01-25T18:59:00;10.90;99.90
41557;DHT22;27720;51.992;5.890;2024-01-25T19:01:26;11.00;99.90
41557;DHT22;27720;51.992;5.890;2024-01-25T19:03:52;11.00;99.90
41557;DHT22;27720;51.992;5.890;2024-01-25T19:06:18;11.00;99.90
41557;DHT22;27720;51.992;5.890;2024-01-25T19:08:47;10.90;99.90
41557;DHT22;27720;51.992;5.890;2024-01-25T19:11:13;11.00;99.90
41557;DHT22;27720;51.992;5.890;2024-01-25T19:13:39;11.00;99.90
41557;DHT22;27720;51.992;5.890;2024-01-25T19:16:04;11.00;99.90
41557;DHT22;27720;51.992;5.890;2024-01-25T19:18:30;11.00;99.90
41557;DHT22;27720;51.992;5.890;2024-01-25T19:20:56;11.00;99.90
41557;DHT22;27720;51.992;5.890;2024-01-25T19:23:22;11.00;99.90
41557;DHT22;27720;51.992;5.890;2024-01-25T19:25:47;11.10;99.90
41557;DHT22;27720;51.992;5.890;2024-01-25T19:28:13;11.10;99.90
41557;DHT22;27720;51.992;5.890;2024-01-25T19:30:39;11.10;99.90
41557;DHT22;27720;51.992;5.890;2024-01-25T19:33:04;11.10;99.90
41557;DHT22;27720;51.992;5.890;2024-01-25T19:35:30;11.20;99.90
41557;DHT22;27720;51.992;5.890;2024-01-25T19:37:56;11.10;99.90
41557;DHT22;27720;51.992;5.890;2024-01-25T19:40:21;11.20;99.90
41557;DHT22;27720;51.992;5.890;2024-01-25T19:42:48;11.20;99.90
41557;DHT22;27720;51.992;5.890;2024-01-25T19:45:15;11.20;99.90
41557;DHT22;27720;51.992;5.890;2024-01-25T19:47:41;11.20;99.90
41557;DHT22;27720;51.992;5.890;2024-01-25T19:50:07;11.30;99.90
41557;DHT22;27720;51.992;5.890;2024-01-25T19:52:33;11.20;99.90
41557;DHT22;27720;51.992;5.890;2024-01-25T19:55:02;11.20;99.90
41557;DHT22;27720;51.992;5.890;2024-01-25T19:57:28;11.20;99.90
41557;DHT22;27720;51.992;5.890;2024-01-25T19:59:54;11.20;99.90
41557;DHT22;27720;51.992;5.890;2024-01-25T20:02:20;11.20;99.90
41557;DHT22;27720;51.992;5.890;2024-01-25T20:04:46;11.20;99.90
41557;DHT22;27720;51.992;5.890;2024-01-25T20:07:12;11.30;99.90
41557;DHT22;27720;51.992;5.890;2024-01-25T20:09:37;11.30;99.90
41557;DHT22;27720;51.992;5.890;2024-01-25T20:12:03;11.30;99.90
41557;DHT22;27720;51.992;5.890;2024-01-25T20:14:29;11.30;99.90
41557;DHT22;27720;51.992;5.890;2024-01-25T20:16:55;11.40;99.90
41557;DHT22;27720;51.992;5.890;2024-01-25T20:19:20;11.30;99.90
41557;DHT22;27720;51.992;5.890;2024-01-25T20:21:46;11.40;99.90
41557;DHT22;27720;51.992;5.890;2024-01-25T20:24:14;11.40;99.90
41557;DHT22;27720;51.992;5.890;2024-01-25T20:26:39;11.30;99.90
41557;DHT22;27720;51.992;5.890;2024-01-25T20:29:06;11.30;99.90
41557;DHT22;27720;51.992;5.890;2024-01-25T20:31:31;11.40;99.90
41557;DHT22;27720;51.992;5.890;2024-01-25T20:33:57;11.40;99.90
41557;DHT22;27720;51.992;5.890;2024-01-25T20:36:23;11.40;99.90
41557;DHT22;27720;51.992;5.890;2024-01-25T20:38:48;11.50;99.90
41557;DHT22;27720;51.992;5.890;2024-01-25T20:41:14;11.50;99.90
41557;DHT22;27720;51.992;5.890;2024-01-25T20:43:40;11.50;99.90
41557;DHT22;27720;51.992;5.890;2024-01-25T20:46:09;11.50;99.90
41557;DHT22;27720;51.992;5.890;2024-01-25T20:48:34;11.50;99.90
41557;DHT22;27720;51.992;5.890;2024-01-25T20:51:01;11.50;99.90
41557;DHT22;27720;51.992;5.890;2024-01-25T20:53:26;11.50;99.90
41557;DHT22;27720;51.992;5.890;2024-01-25T20:55:52;11.50;99.90
41557;DHT22;27720;51.992;5.890;2024-01-25T20:58:18;11.60;99.90
41557;DHT22;27720;51.992;5.890;2024-01-25T21:00:43;11.50;99.90
41557;DHT22;27720;51.992;5.890;2024-01-25T21:03:09;11.50;99.90
41557;DHT22;27720;51.992;5.890;2024-01-25T21:05:35;11.50;99.90
41557;DHT22;27720;51.992;5.890;2024-01-25T21:08:01;11.50;99.90
41557;DHT22;27720;51.992;5.890;2024-01-25T21:10:28;11.60;99.90
41557;DHT22;27720;51.992;5.890;2024-01-25T21:12:54;11.60;99.90
41557;DHT22;27720;51.992;5.890;2024-01-25T21:15:20;11.60;99.90
41557;DHT22;27720;51.992;5.890;2024-01-25T21:17:45;11.60;99.90
41557;DHT22;27720;51.992;5.890;2024-01-25T21:20:11;11.60;99.90
41557;DHT22;27720;51.992;5.890;2024-01-25T21:22:37;11.60;99.90
41557;DHT22;27720;51.992;5.890;2024-01-25T21:25:03;11.60;99.90
41557;DHT22;27720;51.992;5.890;2024-01-25T21:27:28;11.60;99.90
41557;DHT22;27720;51.992;5.890;2024-01-25T21:29:57;11.60;99.90
41557;DHT22;27720;51.992;5.890;2024-01-25T21:32:23;11.60;99.90
41557;DHT22;27720;51.992;5.890;2024-01-25T21:34:49;11.60;99.90
41557;DHT22;27720;51.992;5.890;2024-01-25T21:37:14;11.60;99.90
41557;DHT22;27720;51.992;5.890;2024-01-25T21:39:42;11.60;99.90
41557;DHT22;27720;51.992;5.890;2024-01-25T21:42:08;11.60;99.90
41557;DHT22;27720;51.992;5.890;2024-01-25T21:44:34;11.70;99.90
41557;DHT22;27720;51.992;5.890;2024-01-25T21:46:59;11.70;99.90